Terminal Aerodrome Forecast
Issued by NWS

Home | Current Version | Previous Version | Text Only | Print | Product List | Glossary On
Versions: 1 2 3 4 5 6 7 8 9 10 11 12 13 14 15 16
000
FTUS41 KBTV 300531
TAFRUT
TAF
KRUT 300531Z 3006/3106 14009KT P6SM SKC
     FM301200 15005KT P6SM SKC
     FM301800 19007KT 6SM -TSRA BR SCT050CB BKN120
     FM302000 22005KT P6SM SCT070 SCT250
     FM310000 13005KT P6SM SKC
      AMD NOT SKED=

USA.gov is the U.S. government's official web portal to all federal, state and local government web resources and services.